sensor_id;sensor_type;location;lat;lon;timestamp;P1;durP1;ratioP1;P2;durP2;ratioP2
43835;SDS011;39345;43.964;25.340;2023-02-25T00:00:37;68.25;;;37.50;;
43835;SDS011;39345;43.964;25.340;2023-02-25T00:03:04;66.55;;;37.88;;
43835;SDS011;39345;43.964;25.340;2023-02-25T00:05:32;65.38;;;36.50;;
43835;SDS011;39345;43.964;25.340;2023-02-25T00:07:59;65.53;;;36.53;;
43835;SDS011;39345;43.964;25.340;2023-02-25T00:10:27;68.10;;;38.38;;
43835;SDS011;39345;43.964;25.340;2023-02-25T00:12:54;78.47;;;40.95;;
43835;SDS011;39345;43.964;25.340;2023-02-25T00:15:41;77.28;;;40.13;;
43835;SDS011;39345;43.964;25.340;2023-02-25T00:18:08;80.85;;;42.17;;
43835;SDS011;39345;43.964;25.340;2023-02-25T00:20:38;81.35;;;42.45;;
43835;SDS011;39345;43.964;25.340;2023-02-25T00:23:06;80.32;;;42.70;;
43835;SDS011;39345;43.964;25.340;2023-02-25T00:25:33;76.25;;;39.75;;
43835;SDS011;39345;43.964;25.340;2023-02-25T00:28:01;79.88;;;41.60;;
43835;SDS011;39345;43.964;25.340;2023-02-25T00:30:32;80.53;;;40.13;;
43835;SDS011;39345;43.964;25.340;2023-02-25T00:33:00;75.20;;;40.65;;
43835;SDS011;39345;43.964;25.340;2023-02-25T00:35:27;75.70;;;39.90;;
43835;SDS011;39345;43.964;25.340;2023-02-25T00:37:55;74.65;;;39.55;;
43835;SDS011;39345;43.964;25.340;2023-02-25T00:40:40;76.68;;;39.70;;
43835;SDS011;39345;43.964;25.340;2023-02-25T00:43:07;74.88;;;39.50;;
43835;SDS011;39345;43.964;25.340;2023-02-25T00:45:37;80.25;;;41.03;;
43835;SDS011;39345;43.964;25.340;2023-02-25T00:48:06;75.22;;;40.58;;
43835;SDS011;39345;43.964;25.340;2023-02-25T00:50:34;73.05;;;38.42;;
43835;SDS011;39345;43.964;25.340;2023-02-25T00:53:04;74.30;;;39.95;;
43835;SDS011;39345;43.964;25.340;2023-02-25T00:55:32;72.38;;;39.08;;
43835;SDS011;39345;43.964;25.340;2023-02-25T00:58:00;81.45;;;40.55;;
43835;SDS011;39345;43.964;25.340;2023-02-25T01:00:27;81.60;;;40.13;;
43835;SDS011;39345;43.964;25.340;2023-02-25T01:02:59;85.22;;;40.35;;
43835;SDS011;39345;43.964;25.340;2023-02-25T01:05:27;79.10;;;41.20;;
43835;SDS011;39345;43.964;25.340;2023-02-25T01:07:54;80.32;;;40.63;;
43835;SDS011;39345;43.964;25.340;2023-02-25T01:10:22;79.68;;;40.85;;
43835;SDS011;39345;43.964;25.340;2023-02-25T01:12:49;79.15;;;40.95;;
43835;SDS011;39345;43.964;25.340;2023-02-25T01:15:17;76.18;;;40.08;;
43835;SDS011;39345;43.964;25.340;2023-02-25T01:17:44;78.97;;;40.33;;
43835;SDS011;39345;43.964;25.340;2023-02-25T01:20:12;78.20;;;39.50;;
43835;SDS011;39345;43.964;25.340;2023-02-25T01:22:39;71.30;;;39.60;;
43835;SDS011;39345;43.964;25.340;2023-02-25T01:25:11;78.38;;;40.05;;
43835;SDS011;39345;43.964;25.340;2023-02-25T01:27:39;75.63;;;38.80;;
43835;SDS011;39345;43.964;25.340;2023-02-25T01:30:07;71.78;;;39.47;;
43835;SDS011;39345;43.964;25.340;2023-02-25T01:32:34;80.07;;;40.03;;
43835;SDS011;39345;43.964;25.340;2023-02-25T01:35:02;71.72;;;38.13;;
43835;SDS011;39345;43.964;25.340;2023-02-25T01:37:30;80.82;;;39.83;;
43835;SDS011;39345;43.964;25.340;2023-02-25T01:39:57;78.13;;;39.30;;
43835;SDS011;39345;43.964;25.340;2023-02-25T01:42:24;79.53;;;39.80;;
43835;SDS011;39345;43.964;25.340;2023-02-25T01:47:35;77.28;;;38.55;;
43835;SDS011;39345;43.964;25.340;2023-02-25T01:50:04;77.32;;;36.08;;
43835;SDS011;39345;43.964;25.340;2023-02-25T01:52:32;74.88;;;35.15;;
43835;SDS011;39345;43.964;25.340;2023-02-25T01:54:59;77.35;;;35.10;;
43835;SDS011;39345;43.964;25.340;2023-02-25T01:57:30;74.50;;;35.00;;
43835;SDS011;39345;43.964;25.340;2023-02-25T01:59:57;71.03;;;33.15;;
43835;SDS011;39345;43.964;25.340;2023-02-25T02:02:25;73.78;;;36.42;;
43835;SDS011;39345;43.964;25.340;2023-02-25T02:04:54;77.30;;;39.03;;
43835;SDS011;39345;43.964;25.340;2023-02-25T02:07:22;73.60;;;38.53;;
43835;SDS011;39345;43.964;25.340;2023-02-25T02:09:52;67.45;;;34.65;;
43835;SDS011;39345;43.964;25.340;2023-02-25T02:12:26;69.30;;;35.08;;
43835;SDS011;39345;43.964;25.340;2023-02-25T02:14:55;65.57;;;31.60;;
43835;SDS011;39345;43.964;25.340;2023-02-25T02:17:34;71.13;;;32.83;;
43835;SDS011;39345;43.964;25.340;2023-02-25T02:23:09;57.95;;;28.25;;
43835;SDS011;39345;43.964;25.340;2023-02-25T02:25:47;60.40;;;31.75;;
43835;SDS011;39345;43.964;25.340;2023-02-25T02:35:50;57.97;;;27.63;;
43835;SDS011;39345;43.964;25.340;2023-02-25T02:41:00;51.95;;;27.42;;
43835;SDS011;39345;43.964;25.340;2023-02-25T02:46:06;52.47;;;26.80;;
43835;SDS011;39345;43.964;25.340;2023-02-25T02:51:15;54.83;;;26.42;;
43835;SDS011;39345;43.964;25.340;2023-02-25T02:53:45;56.28;;;26.25;;
43835;SDS011;39345;43.964;25.340;2023-02-25T02:56:16;52.63;;;25.25;;
43835;SDS011;39345;43.964;25.340;2023-02-25T02:58:58;51.67;;;25.63;;
43835;SDS011;39345;43.964;25.340;2023-02-25T03:01:28;50.20;;;26.05;;
43835;SDS011;39345;43.964;25.340;2023-02-25T03:03:59;46.65;;;24.88;;
43835;SDS011;39345;43.964;25.340;2023-02-25T03:06:35;49.20;;;24.58;;
43835;SDS011;39345;43.964;25.340;2023-02-25T03:09:06;50.00;;;25.05;;
43835;SDS011;39345;43.964;25.340;2023-02-25T03:11:35;50.13;;;25.55;;
43835;SDS011;39345;43.964;25.340;2023-02-25T03:14:03;40.72;;;22.83;;
43835;SDS011;39345;43.964;25.340;2023-02-25T03:16:41;46.15;;;22.90;;
43835;SDS011;39345;43.964;25.340;2023-02-25T03:19:17;40.45;;;23.08;;
43835;SDS011;39345;43.964;25.340;2023-02-25T03:21:51;41.78;;;23.10;;
43835;SDS011;39345;43.964;25.340;2023-02-25T03:24:22;42.88;;;23.52;;
43835;SDS011;39345;43.964;25.340;2023-02-25T03:26:52;43.95;;;23.00;;
43835;SDS011;39345;43.964;25.340;2023-02-25T03:29:22;74.22;;;25.75;;
43835;SDS011;39345;43.964;25.340;2023-02-25T03:32:02;87.55;;;28.55;;
43835;SDS011;39345;43.964;25.340;2023-02-25T03:34:34;145.25;;;30.58;;
43835;SDS011;39345;43.964;25.340;2023-02-25T03:37:05;114.88;;;30.52;;
43835;SDS011;39345;43.964;25.340;2023-02-25T03:39:36;90.50;;;30.55;;
43835;SDS011;39345;43.964;25.340;2023-02-25T03:42:09;90.90;;;31.33;;
43835;SDS011;39345;43.964;25.340;2023-02-25T03:44:41;83.72;;;32.63;;
43835;SDS011;39345;43.964;25.340;2023-02-25T03:47:10;78.43;;;31.23;;
43835;SDS011;39345;43.964;25.340;2023-02-25T03:49:55;68.38;;;29.58;;
43835;SDS011;39345;43.964;25.340;2023-02-25T03:52:25;59.78;;;27.88;;
43835;SDS011;39345;43.964;25.340;2023-02-25T03:54:57;57.50;;;27.33;;
43835;SDS011;39345;43.964;25.340;2023-02-25T03:57:26;56.58;;;27.23;;
43835;SDS011;39345;43.964;25.340;2023-02-25T04:00:00;61.13;;;27.20;;
43835;SDS011;39345;43.964;25.340;2023-02-25T04:02:38;62.47;;;26.63;;
43835;SDS011;39345;43.964;25.340;2023-02-25T04:05:06;53.33;;;27.30;;
43835;SDS011;39345;43.964;25.340;2023-02-25T04:07:35;54.92;;;27.50;;
43835;SDS011;39345;43.964;25.340;2023-02-25T04:10:04;50.45;;;26.05;;
43835;SDS011;39345;43.964;25.340;2023-02-25T04:12:32;60.47;;;28.38;;
43835;SDS011;39345;43.964;25.340;2023-02-25T04:15:00;53.25;;;27.08;;
43835;SDS011;39345;43.964;25.340;2023-02-25T04:17:27;50.17;;;26.73;;
43835;SDS011;39345;43.964;25.340;2023-02-25T04:19:55;58.85;;;27.88;;
43835;SDS011;39345;43.964;25.340;2023-02-25T04:22:22;61.72;;;29.08;;
43835;SDS011;39345;43.964;25.340;2023-02-25T04:24:50;66.78;;;30.83;;
43835;SDS011;39345;43.964;25.340;2023-02-25T04:27:17;66.05;;;32.13;;
43835;SDS011;39345;43.964;25.340;2023-02-25T04:29:45;67.85;;;32.72;;
43835;SDS011;39345;43.964;25.340;2023-02-25T04:32:12;70.13;;;31.25;;
43835;SDS011;39345;43.964;25.340;2023-02-25T04:34:40;80.30;;;34.55;;
43835;SDS011;39345;43.964;25.340;2023-02-25T04:37:07;75.47;;;35.00;;
43835;SDS011;39345;43.964;25.340;2023-02-25T04:39:35;60.90;;;29.98;;
43835;SDS011;39345;43.964;25.340;2023-02-25T04:42:04;58.20;;;26.40;;
43835;SDS011;39345;43.964;25.340;2023-02-25T04:44:32;69.03;;;27.45;;
43835;SDS011;39345;43.964;25.340;2023-02-25T04:47:00;107.47;;;26.42;;
43835;SDS011;39345;43.964;25.340;2023-02-25T04:49:27;71.88;;;26.58;;
43835;SDS011;39345;43.964;25.340;2023-02-25T04:51:54;64.28;;;27.58;;
43835;SDS011;39345;43.964;25.340;2023-02-25T04:54:22;73.60;;;26.95;;
43835;SDS011;39345;43.964;25.340;2023-02-25T04:56:49;104.70;;;25.05;;
43835;SDS011;39345;43.964;25.340;2023-02-25T04:59:17;94.53;;;27.52;;
43835;SDS011;39345;43.964;25.340;2023-02-25T05:01:44;56.53;;;27.70;;
43835;SDS011;39345;43.964;25.340;2023-02-25T05:04:12;95.95;;;30.02;;
43835;SDS011;39345;43.964;25.340;2023-02-25T05:06:39;108.18;;;34.40;;
43835;SDS011;39345;43.964;25.340;2023-02-25T05:09:07;87.78;;;32.58;;
43835;SDS011;39345;43.964;25.340;2023-02-25T05:11:35;72.40;;;33.42;;
43835;SDS011;39345;43.964;25.340;2023-02-25T05:14:03;111.82;;;33.88;;
43835;SDS011;39345;43.964;25.340;2023-02-25T05:16:30;78.90;;;33.13;;
43835;SDS011;39345;43.964;25.340;2023-02-25T05:18:58;73.13;;;33.53;;
43835;SDS011;39345;43.964;25.340;2023-02-25T05:21:26;89.85;;;34.25;;
43835;SDS011;39345;43.964;25.340;2023-02-25T05:23:54;92.68;;;33.47;;
43835;SDS011;39345;43.964;25.340;2023-02-25T05:26:22;94.53;;;31.52;;
43835;SDS011;39345;43.964;25.340;2023-02-25T05:28:52;66.72;;;29.10;;
43835;SDS011;39345;43.964;25.340;2023-02-25T05:31:19;71.22;;;29.02;;
43835;SDS011;39345;43.964;25.340;2023-02-25T05:33:47;90.22;;;28.65;;
43835;SDS011;39345;43.964;25.340;2023-02-25T05:36:15;63.38;;;25.20;;
43835;SDS011;39345;43.964;25.340;2023-02-25T05:38:43;73.55;;;24.45;;
43835;SDS011;39345;43.964;25.340;2023-02-25T05:41:11;151.40;;;28.00;;
43835;SDS011;39345;43.964;25.340;2023-02-25T05:43:39;103.50;;;24.30;;
43835;SDS011;39345;43.964;25.340;2023-02-25T05:46:07;163.25;;;23.73;;
43835;SDS011;39345;43.964;25.340;2023-02-25T05:48:37;158.05;;;22.08;;
43835;SDS011;39345;43.964;25.340;2023-02-25T05:51:12;155.95;;;21.35;;
43835;SDS011;39345;43.964;25.340;2023-02-25T05:53:40;130.85;;;22.35;;
43835;SDS011;39345;43.964;25.340;2023-02-25T05:56:11;93.25;;;21.52;;
43835;SDS011;39345;43.964;25.340;2023-02-25T05:58:39;50.33;;;21.02;;
43835;SDS011;39345;43.964;25.340;2023-02-25T06:01:07;77.40;;;22.15;;
43835;SDS011;39345;43.964;25.340;2023-02-25T06:03:37;49.40;;;21.92;;
43835;SDS011;39345;43.964;25.340;2023-02-25T06:06:05;75.88;;;20.10;;
43835;SDS011;39345;43.964;25.340;2023-02-25T06:08:32;63.30;;;21.70;;
43835;SDS011;39345;43.964;25.340;2023-02-25T06:11:00;65.95;;;22.92;;
43835;SDS011;39345;43.964;25.340;2023-02-25T06:13:29;42.50;;;19.58;;
43835;SDS011;39345;43.964;25.340;2023-02-25T06:15:56;75.18;;;25.50;;
43835;SDS011;39345;43.964;25.340;2023-02-25T06:18:24;67.90;;;24.23;;
43835;SDS011;39345;43.964;25.340;2023-02-25T06:20:51;67.10;;;24.17;;
43835;SDS011;39345;43.964;25.340;2023-02-25T06:23:20;77.50;;;24.58;;
43835;SDS011;39345;43.964;25.340;2023-02-25T06:25:47;107.25;;;25.00;;
43835;SDS011;39345;43.964;25.340;2023-02-25T06:28:15;82.53;;;26.38;;
43835;SDS011;39345;43.964;25.340;2023-02-25T06:30:42;68.88;;;25.85;;
43835;SDS011;39345;43.964;25.340;2023-02-25T06:33:10;65.30;;;26.60;;
43835;SDS011;39345;43.964;25.340;2023-02-25T06:35:37;100.82;;;28.40;;
43835;SDS011;39345;43.964;25.340;2023-02-25T06:38:05;69.88;;;27.77;;
43835;SDS011;39345;43.964;25.340;2023-02-25T06:40:32;67.95;;;29.55;;
43835;SDS011;39345;43.964;25.340;2023-02-25T06:42:59;71.15;;;29.95;;
43835;SDS011;39345;43.964;25.340;2023-02-25T06:45:27;70.47;;;29.08;;
43835;SDS011;39345;43.964;25.340;2023-02-25T06:47:54;81.57;;;36.75;;
43835;SDS011;39345;43.964;25.340;2023-02-25T06:50:22;80.57;;;37.53;;
43835;SDS011;39345;43.964;25.340;2023-02-25T06:52:49;73.88;;;34.42;;
43835;SDS011;39345;43.964;25.340;2023-02-25T06:55:17;78.13;;;33.45;;
43835;SDS011;39345;43.964;25.340;2023-02-25T06:57:44;82.32;;;33.70;;
43835;SDS011;39345;43.964;25.340;2023-02-25T07:00:12;78.18;;;33.20;;
43835;SDS011;39345;43.964;25.340;2023-02-25T07:02:40;79.22;;;34.25;;
43835;SDS011;39345;43.964;25.340;2023-02-25T07:05:08;78.93;;;35.85;;
43835;SDS011;39345;43.964;25.340;2023-02-25T07:07:35;71.35;;;34.15;;
43835;SDS011;39345;43.964;25.340;2023-02-25T07:10:03;63.15;;;34.13;;
43835;SDS011;39345;43.964;25.340;2023-02-25T07:12:31;66.45;;;31.58;;
43835;SDS011;39345;43.964;25.340;2023-02-25T07:14:58;61.85;;;31.88;;
43835;SDS011;39345;43.964;25.340;2023-02-25T07:17:26;66.22;;;32.28;;
43835;SDS011;39345;43.964;25.340;2023-02-25T07:19:54;57.15;;;30.45;;
43835;SDS011;39345;43.964;25.340;2023-02-25T07:22:22;62.20;;;32.05;;
43835;SDS011;39345;43.964;25.340;2023-02-25T07:24:49;62.42;;;30.92;;
43835;SDS011;39345;43.964;25.340;2023-02-25T07:27:17;62.88;;;32.05;;
43835;SDS011;39345;43.964;25.340;2023-02-25T07:29:44;66.45;;;33.15;;
43835;SDS011;39345;43.964;25.340;2023-02-25T07:32:12;67.25;;;35.10;;
43835;SDS011;39345;43.964;25.340;2023-02-25T07:34:40;75.32;;;40.00;;
43835;SDS011;39345;43.964;25.340;2023-02-25T07:37:07;67.35;;;38.13;;
43835;SDS011;39345;43.964;25.340;2023-02-25T07:39:35;69.18;;;37.95;;
43835;SDS011;39345;43.964;25.340;2023-02-25T07:42:02;73.22;;;38.33;;
43835;SDS011;39345;43.964;25.340;2023-02-25T07:44:30;70.43;;;39.40;;
43835;SDS011;39345;43.964;25.340;2023-02-25T07:47:00;72.50;;;39.25;;
43835;SDS011;39345;43.964;25.340;2023-02-25T07:49:28;68.18;;;36.75;;
43835;SDS011;39345;43.964;25.340;2023-02-25T07:51:55;71.22;;;40.55;;
43835;SDS011;39345;43.964;25.340;2023-02-25T07:54:23;66.22;;;37.17;;
43835;SDS011;39345;43.964;25.340;2023-02-25T07:56:50;56.50;;;33.90;;
43835;SDS011;39345;43.964;25.340;2023-02-25T07:59:18;62.75;;;34.50;;
43835;SDS011;39345;43.964;25.340;2023-02-25T08:01:45;65.03;;;34.50;;
43835;SDS011;39345;43.964;25.340;2023-02-25T08:04:13;46.03;;;26.38;;
43835;SDS011;39345;43.964;25.340;2023-02-25T08:06:40;40.40;;;23.52;;
43835;SDS011;39345;43.964;25.340;2023-02-25T08:09:09;34.83;;;20.90;;
43835;SDS011;39345;43.964;25.340;2023-02-25T08:11:39;32.47;;;20.23;;
43835;SDS011;39345;43.964;25.340;2023-02-25T08:14:07;39.03;;;22.73;;
43835;SDS011;39345;43.964;25.340;2023-02-25T08:16:34;34.13;;;21.58;;
43835;SDS011;39345;43.964;25.340;2023-02-25T08:19:03;35.08;;;21.48;;
43835;SDS011;39345;43.964;25.340;2023-02-25T08:21:31;36.63;;;20.75;;
43835;SDS011;39345;43.964;25.340;2023-02-25T08:23:58;32.15;;;19.67;;
43835;SDS011;39345;43.964;25.340;2023-02-25T08:26:26;33.13;;;19.80;;
43835;SDS011;39345;43.964;25.340;2023-02-25T08:28:54;32.58;;;19.13;;
43835;SDS011;39345;43.964;25.340;2023-02-25T08:31:23;33.85;;;19.88;;
43835;SDS011;39345;43.964;25.340;2023-02-25T08:33:51;33.40;;;19.80;;
43835;SDS011;39345;43.964;25.340;2023-02-25T08:36:23;33.85;;;21.08;;
43835;SDS011;39345;43.964;25.340;2023-02-25T08:38:52;40.45;;;20.98;;
43835;SDS011;39345;43.964;25.340;2023-02-25T08:41:20;39.83;;;21.60;;
43835;SDS011;39345;43.964;25.340;2023-02-25T08:43:49;31.42;;;20.33;;
43835;SDS011;39345;43.964;25.340;2023-02-25T08:46:17;31.77;;;20.33;;
43835;SDS011;39345;43.964;25.340;2023-02-25T08:48:47;35.33;;;20.13;;
43835;SDS011;39345;43.964;25.340;2023-02-25T08:51:15;34.47;;;20.17;;
43835;SDS011;39345;43.964;25.340;2023-02-25T08:53:43;30.50;;;19.25;;
43835;SDS011;39345;43.964;25.340;2023-02-25T08:56:12;32.35;;;19.83;;
43835;SDS011;39345;43.964;25.340;2023-02-25T08:58:40;34.30;;;20.60;;
43835;SDS011;39345;43.964;25.340;2023-02-25T09:01:08;34.88;;;21.10;;
43835;SDS011;39345;43.964;25.340;2023-02-25T09:03:40;34.47;;;18.45;;
43835;SDS011;39345;43.964;25.340;2023-02-25T09:06:19;30.05;;;18.58;;
43835;SDS011;39345;43.964;25.340;2023-02-25T09:08:46;24.90;;;17.17;;
43835;SDS011;39345;43.964;25.340;2023-02-25T09:11:14;27.77;;;18.00;;
43835;SDS011;39345;43.964;25.340;2023-02-25T09:13:42;28.98;;;17.77;;
43835;SDS011;39345;43.964;25.340;2023-02-25T09:16:09;28.17;;;17.90;;
43835;SDS011;39345;43.964;25.340;2023-02-25T09:18:41;26.48;;;18.15;;
43835;SDS011;39345;43.964;25.340;2023-02-25T09:21:10;31.38;;;18.65;;
43835;SDS011;39345;43.964;25.340;2023-02-25T09:23:37;30.58;;;18.35;;
43835;SDS011;39345;43.964;25.340;2023-02-25T09:26:05;29.90;;;18.20;;
43835;SDS011;39345;43.964;25.340;2023-02-25T09:28:32;30.85;;;18.33;;
43835;SDS011;39345;43.964;25.340;2023-02-25T09:31:00;35.78;;;21.52;;
43835;SDS011;39345;43.964;25.340;2023-02-25T09:33:29;28.17;;;18.23;;
43835;SDS011;39345;43.964;25.340;2023-02-25T09:36:07;25.13;;;16.13;;
43835;SDS011;39345;43.964;25.340;2023-02-25T09:38:35;35.25;;;19.45;;
43835;SDS011;39345;43.964;25.340;2023-02-25T09:41:03;44.05;;;27.25;;
43835;SDS011;39345;43.964;25.340;2023-02-25T09:43:39;48.03;;;26.08;;
43835;SDS011;39345;43.964;25.340;2023-02-25T09:46:09;43.13;;;26.10;;
43835;SDS011;39345;43.964;25.340;2023-02-25T09:48:44;43.17;;;26.38;;
43835;SDS011;39345;43.964;25.340;2023-02-25T09:51:21;42.88;;;27.95;;
43835;SDS011;39345;43.964;25.340;2023-02-25T09:53:56;49.20;;;28.58;;
43835;SDS011;39345;43.964;25.340;2023-02-25T09:56:27;48.83;;;29.75;;
43835;SDS011;39345;43.964;25.340;2023-02-25T09:58:58;46.05;;;28.65;;
43835;SDS011;39345;43.964;25.340;2023-02-25T10:01:35;46.78;;;29.02;;
43835;SDS011;39345;43.964;25.340;2023-02-25T10:06:41;50.35;;;31.13;;
43835;SDS011;39345;43.964;25.340;2023-02-25T10:24:42;59.65;;;33.30;;
43835;SDS011;39345;43.964;25.340;2023-02-25T10:27:23;54.42;;;32.47;;
43835;SDS011;39345;43.964;25.340;2023-02-25T10:29:55;48.33;;;30.52;;
43835;SDS011;39345;43.964;25.340;2023-02-25T10:32:30;51.60;;;30.35;;
43835;SDS011;39345;43.964;25.340;2023-02-25T10:35:04;47.90;;;28.88;;
43835;SDS011;39345;43.964;25.340;2023-02-25T10:37:38;47.17;;;30.13;;
43835;SDS011;39345;43.964;25.340;2023-02-25T10:40:06;51.05;;;30.63;;
43835;SDS011;39345;43.964;25.340;2023-02-25T10:42:36;50.95;;;29.42;;
43835;SDS011;39345;43.964;25.340;2023-02-25T10:45:08;49.92;;;31.27;;
43835;SDS011;39345;43.964;25.340;2023-02-25T10:47:41;49.80;;;32.85;;
43835;SDS011;39345;43.964;25.340;2023-02-25T10:53:02;53.30;;;33.13;;
43835;SDS011;39345;43.964;25.340;2023-02-25T10:55:49;69.28;;;44.15;;
43835;SDS011;39345;43.964;25.340;2023-02-25T11:00:55;50.60;;;30.23;;
43835;SDS011;39345;43.964;25.340;2023-02-25T11:03:24;53.40;;;32.25;;
43835;SDS011;39345;43.964;25.340;2023-02-25T11:05:58;55.83;;;33.33;;
43835;SDS011;39345;43.964;25.340;2023-02-25T11:08:33;52.15;;;32.20;;
43835;SDS011;39345;43.964;25.340;2023-02-25T11:13:35;50.72;;;28.38;;
43835;SDS011;39345;43.964;25.340;2023-02-25T11:16:11;51.20;;;30.92;;
43835;SDS011;39345;43.964;25.340;2023-02-25T11:18:40;47.05;;;28.20;;
43835;SDS011;39345;43.964;25.340;2023-02-25T11:21:11;46.60;;;28.70;;
43835;SDS011;39345;43.964;25.340;2023-02-25T11:26:13;51.38;;;30.23;;
43835;SDS011;39345;43.964;25.340;2023-02-25T11:28:47;46.58;;;28.92;;
43835;SDS011;39345;43.964;25.340;2023-02-25T11:31:17;53.93;;;33.20;;
43835;SDS011;39345;43.964;25.340;2023-02-25T11:33:49;45.58;;;28.38;;
43835;SDS011;39345;43.964;25.340;2023-02-25T11:36:22;45.63;;;27.83;;
43835;SDS011;39345;43.964;25.340;2023-02-25T11:39:02;48.35;;;30.00;;
43835;SDS011;39345;43.964;25.340;2023-02-25T11:41:30;48.15;;;27.80;;
43835;SDS011;39345;43.964;25.340;2023-02-25T11:44:09;47.88;;;28.23;;
43835;SDS011;39345;43.964;25.340;2023-02-25T11:46:37;48.17;;;28.13;;
43835;SDS011;39345;43.964;25.340;2023-02-25T11:51:44;50.28;;;28.98;;
43835;SDS011;39345;43.964;25.340;2023-02-25T11:54:28;48.50;;;29.63;;
43835;SDS011;39345;43.964;25.340;2023-02-25T11:59:37;47.63;;;27.13;;
43835;SDS011;39345;43.964;25.340;2023-02-25T12:12:58;38.72;;;24.13;;
43835;SDS011;39345;43.964;25.340;2023-02-25T12:15:47;42.35;;;24.40;;
43835;SDS011;39345;43.964;25.340;2023-02-25T12:35:29;33.20;;;21.50;;
43835;SDS011;39345;43.964;25.340;2023-02-25T12:37:45;36.13;;;22.35;;
43835;SDS011;39345;43.964;25.340;2023-02-25T12:45:24;38.95;;;22.88;;
43835;SDS011;39345;43.964;25.340;2023-02-25T12:48:21;39.92;;;24.75;;
43835;SDS011;39345;43.964;25.340;2023-02-25T12:56:36;39.72;;;22.65;;
43835;SDS011;39345;43.964;25.340;2023-02-25T13:04:22;39.88;;;23.50;;
43835;SDS011;39345;43.964;25.340;2023-02-25T13:14:48;40.00;;;23.58;;
43835;SDS011;39345;43.964;25.340;2023-02-25T13:38:50;37.67;;;22.00;;
43835;SDS011;39345;43.964;25.340;2023-02-25T13:57:29;39.38;;;22.95;;
43835;SDS011;39345;43.964;25.340;2023-02-25T14:13:00;36.35;;;21.42;;
43835;SDS011;39345;43.964;25.340;2023-02-25T14:23:32;44.53;;;24.45;;
43835;SDS011;39345;43.964;25.340;2023-02-25T14:26:14;40.78;;;24.13;;
43835;SDS011;39345;43.964;25.340;2023-02-25T14:28:52;78.30;;;45.28;;
43835;SDS011;39345;43.964;25.340;2023-02-25T14:31:42;52.33;;;31.40;;
43835;SDS011;39345;43.964;25.340;2023-02-25T14:34:22;54.58;;;30.05;;
43835;SDS011;39345;43.964;25.340;2023-02-25T14:44:54;48.20;;;27.50;;
43835;SDS011;39345;43.964;25.340;2023-02-25T14:47:58;53.25;;;29.58;;
43835;SDS011;39345;43.964;25.340;2023-02-25T14:58:37;45.22;;;26.52;;
43835;SDS011;39345;43.964;25.340;2023-02-25T15:22:35;54.17;;;33.10;;
43835;SDS011;39345;43.964;25.340;2023-02-25T15:27:47;60.22;;;35.65;;
43835;SDS011;39345;43.964;25.340;2023-02-25T15:30:18;71.30;;;39.67;;
43835;SDS011;39345;43.964;25.340;2023-02-25T15:42:54;67.20;;;40.00;;
43835;SDS011;39345;43.964;25.340;2023-02-25T16:00:55;79.40;;;46.50;;
43835;SDS011;39345;43.964;25.340;2023-02-25T16:06:05;78.93;;;46.05;;
43835;SDS011;39345;43.964;25.340;2023-02-25T16:08:48;76.43;;;43.33;;
43835;SDS011;39345;43.964;25.340;2023-02-25T16:14:02;67.38;;;39.00;;
43835;SDS011;39345;43.964;25.340;2023-02-25T16:16:30;67.40;;;39.08;;
43835;SDS011;39345;43.964;25.340;2023-02-25T16:18:58;77.50;;;37.95;;
43835;SDS011;39345;43.964;25.340;2023-02-25T16:21:40;68.93;;;36.28;;
43835;SDS011;39345;43.964;25.340;2023-02-25T16:24:10;68.35;;;37.40;;
43835;SDS011;39345;43.964;25.340;2023-02-25T16:34:35;83.28;;;49.47;;
43835;SDS011;39345;43.964;25.340;2023-02-25T16:37:12;76.45;;;42.03;;
43835;SDS011;39345;43.964;25.340;2023-02-25T16:39:43;62.67;;;38.40;;
43835;SDS011;39345;43.964;25.340;2023-02-25T16:42:11;65.72;;;39.33;;
43835;SDS011;39345;43.964;25.340;2023-02-25T16:44:39;67.85;;;37.75;;
43835;SDS011;39345;43.964;25.340;2023-02-25T16:49:51;71.85;;;43.53;;
43835;SDS011;39345;43.964;25.340;2023-02-25T16:52:20;72.13;;;43.17;;
43835;SDS011;39345;43.964;25.340;2023-02-25T16:54:52;59.78;;;37.65;;
43835;SDS011;39345;43.964;25.340;2023-02-25T16:57:21;51.67;;;33.75;;
43835;SDS011;39345;43.964;25.340;2023-02-25T16:59:50;55.90;;;32.72;;
43835;SDS011;39345;43.964;25.340;2023-02-25T17:02:32;62.60;;;35.78;;
43835;SDS011;39345;43.964;25.340;2023-02-25T17:05:10;72.88;;;40.85;;
43835;SDS011;39345;43.964;25.340;2023-02-25T17:07:52;69.60;;;41.10;;
43835;SDS011;39345;43.964;25.340;2023-02-25T17:10:24;69.97;;;42.25;;
43835;SDS011;39345;43.964;25.340;2023-02-25T17:12:52;73.68;;;42.00;;
43835;SDS011;39345;43.964;25.340;2023-02-25T17:15:22;72.53;;;42.50;;
43835;SDS011;39345;43.964;25.340;2023-02-25T17:17:52;74.20;;;43.05;;
43835;SDS011;39345;43.964;25.340;2023-02-25T17:20:22;77.35;;;45.92;;
43835;SDS011;39345;43.964;25.340;2023-02-25T17:22:53;85.00;;;48.35;;
43835;SDS011;39345;43.964;25.340;2023-02-25T17:25:22;83.45;;;46.60;;
43835;SDS011;39345;43.964;25.340;2023-02-25T17:27:52;81.78;;;47.55;;
43835;SDS011;39345;43.964;25.340;2023-02-25T17:33:14;96.57;;;53.47;;
43835;SDS011;39345;43.964;25.340;2023-02-25T17:35:44;94.43;;;54.83;;
43835;SDS011;39345;43.964;25.340;2023-02-25T17:38:17;101.03;;;58.03;;
43835;SDS011;39345;43.964;25.340;2023-02-25T17:40:45;101.60;;;61.70;;
43835;SDS011;39345;43.964;25.340;2023-02-25T17:43:15;108.97;;;62.78;;
43835;SDS011;39345;43.964;25.340;2023-02-25T17:48:16;107.05;;;61.15;;
43835;SDS011;39345;43.964;25.340;2023-02-25T17:50:50;105.90;;;60.88;;
43835;SDS011;39345;43.964;25.340;2023-02-25T17:53:41;86.65;;;52.97;;
43835;SDS011;39345;43.964;25.340;2023-02-25T17:58:36;94.13;;;56.13;;
43835;SDS011;39345;43.964;25.340;2023-02-25T18:01:04;103.45;;;58.85;;
43835;SDS011;39345;43.964;25.340;2023-02-25T18:03:41;91.90;;;54.10;;
43835;SDS011;39345;43.964;25.340;2023-02-25T18:08:56;99.05;;;57.63;;
43835;SDS011;39345;43.964;25.340;2023-02-25T18:11:35;99.43;;;56.47;;
43835;SDS011;39345;43.964;25.340;2023-02-25T18:18:58;94.07;;;57.38;;
43835;SDS011;39345;43.964;25.340;2023-02-25T18:21:26;95.70;;;57.05;;
43835;SDS011;39345;43.964;25.340;2023-02-25T18:23:54;92.68;;;53.78;;
43835;SDS011;39345;43.964;25.340;2023-02-25T18:26:23;101.97;;;59.10;;
43835;SDS011;39345;43.964;25.340;2023-02-25T18:28:52;109.10;;;60.85;;
43835;SDS011;39345;43.964;25.340;2023-02-25T18:31:23;114.35;;;65.53;;
43835;SDS011;39345;43.964;25.340;2023-02-25T18:33:51;108.00;;;63.80;;
43835;SDS011;39345;43.964;25.340;2023-02-25T18:36:23;123.95;;;67.65;;
43835;SDS011;39345;43.964;25.340;2023-02-25T18:38:52;139.48;;;78.45;;
43835;SDS011;39345;43.964;25.340;2023-02-25T18:41:20;162.82;;;84.13;;
43835;SDS011;39345;43.964;25.340;2023-02-25T18:43:47;172.32;;;97.55;;
43835;SDS011;39345;43.964;25.340;2023-02-25T18:46:16;175.02;;;97.53;;
43835;SDS011;39345;43.964;25.340;2023-02-25T18:48:43;168.77;;;90.43;;